createdAt,value
2018-12-07T00:00:30.163Z,1.87
2018-12-07T00:02:58.543Z,2.20
2018-12-07T00:05:27.837Z,3.50
2018-12-07T00:07:56.556Z,2.83
2018-12-07T00:10:25.050Z,3.30
2018-12-07T00:12:53.428Z,2.20
2018-12-07T00:15:21.793Z,2.10
2018-12-07T00:17:51.642Z,2.10
2018-12-07T00:20:20.105Z,2.70
2018-12-07T00:22:48.485Z,2.10
2018-12-07T00:25:17.039Z,2.30
2018-12-07T00:27:45.975Z,2.00
2018-12-07T00:30:14.343Z,2.33
2018-12-07T00:32:42.873Z,2.20
2018-12-07T00:35:11.333Z,1.73
2018-12-07T00:37:39.816Z,2.77
2018-12-07T00:40:08.297Z,1.77
2018-12-07T00:42:36.754Z,1.80
2018-12-07T00:45:05.620Z,1.60
2018-12-07T00:47:34.028Z,2.00
2018-12-07T00:50:02.456Z,2.03
2018-12-07T00:52:30.828Z,1.93
2018-12-07T00:55:01.629Z,1.40
2018-12-07T00:57:30.050Z,1.60
2018-12-07T00:59:58.583Z,1.47
2018-12-07T01:02:28.149Z,1.73
2018-12-07T01:04:56.619Z,1.30
2018-12-07T01:07:25.014Z,1.30
2018-12-07T01:09:54.674Z,1.30
2018-12-07T01:12:23.484Z,1.47
2018-12-07T01:14:52.221Z,1.20
2018-12-07T01:17:22.599Z,1.50
2018-12-07T01:19:51.013Z,1.50
2018-12-07T01:22:19.458Z,1.60
2018-12-07T01:24:48.579Z,1.60
2018-12-07T01:27:17.917Z,1.40
2018-12-07T01:29:46.326Z,1.37
2018-12-07T01:32:17.055Z,1.63
2018-12-07T01:34:45.522Z,1.43
2018-12-07T01:37:13.897Z,1.30
2018-12-07T01:39:43.447Z,1.30
2018-12-07T01:42:12.037Z,1.10
2018-12-07T01:44:41.424Z,1.40
2018-12-07T01:47:10.886Z,1.30
2018-12-07T01:49:39.319Z,1.50
2018-12-07T01:52:09.268Z,1.37
2018-12-07T01:54:37.703Z,1.50
2018-12-07T01:57:06.081Z,1.43
2018-12-07T01:59:34.848Z,1.00
2018-12-07T02:02:03.383Z,1.40
2018-12-07T02:04:31.740Z,1.67
2018-12-07T02:07:01.576Z,1.20
2018-12-07T02:09:30.659Z,1.67
2018-12-07T02:11:58.994Z,1.50
2018-12-07T02:14:29.278Z,1.37
2018-12-07T02:16:57.781Z,1.40
2018-12-07T02:19:26.336Z,1.63
2018-12-07T02:21:56.338Z,1.53
2018-12-07T02:24:24.693Z,1.50
2018-12-07T02:26:53.074Z,1.80
2018-12-07T02:29:23.050Z,1.80
2018-12-07T02:31:51.412Z,1.87
2018-12-07T02:34:19.765Z,2.20
2018-12-07T02:36:49.982Z,2.10
2018-12-07T02:39:18.402Z,2.10
2018-12-07T02:41:46.780Z,2.23
2018-12-07T02:44:16.727Z,2.60
2018-12-07T02:46:45.092Z,2.70
2018-12-07T02:49:13.492Z,2.93
2018-12-07T02:51:41.836Z,2.50
2018-12-07T02:54:10.319Z,2.97
2018-12-07T02:56:39.507Z,2.50
2018-12-07T02:59:07.953Z,2.23
2018-12-07T03:01:36.420Z,2.37
2018-12-07T03:04:06.291Z,2.50
2018-12-07T03:06:34.665Z,2.40
2018-12-07T03:09:04.412Z,2.20
2018-12-07T03:11:34.173Z,2.00
2018-12-07T03:14:02.663Z,2.60
2018-12-07T03:16:31.007Z,2.57
2018-12-07T03:19:00.687Z,2.20
2018-12-07T03:21:31.034Z,2.47
2018-12-07T03:23:59.445Z,2.63
2018-12-07T03:26:29.554Z,1.97
2018-12-07T03:28:58.014Z,2.00
2018-12-07T03:31:26.457Z,2.27
2018-12-07T03:33:55.052Z,2.23
2018-12-07T03:36:23.441Z,1.50
2018-12-07T03:38:51.793Z,1.80
2018-12-07T03:41:21.430Z,1.70
2018-12-07T03:43:49.853Z,2.13
2018-12-07T03:46:18.270Z,2.27
2018-12-07T03:48:48.364Z,1.97
2018-12-07T03:51:16.771Z,2.10
2018-12-07T03:53:45.147Z,2.20
2018-12-07T03:56:14.916Z,1.90
2018-12-07T03:58:43.436Z,1.60
2018-12-07T04:01:11.847Z,1.70
2018-12-07T04:03:41.709Z,1.87
2018-12-07T04:06:10.417Z,1.50
2018-12-07T04:08:39.627Z,1.77
2018-12-07T04:11:07.992Z,1.50
2018-12-07T04:13:36.485Z,1.80
2018-12-07T04:16:04.936Z,1.80
2018-12-07T04:18:33.432Z,1.70
2018-12-07T04:21:01.921Z,1.73
2018-12-07T04:23:30.380Z,1.93
2018-12-07T04:25:59.612Z,1.70
2018-12-07T04:28:28.007Z,3.53
2018-12-07T04:30:56.452Z,3.70
2018-12-07T04:33:25.144Z,3.63
2018-12-07T04:35:54.584Z,3.60
2018-12-07T04:38:22.967Z,4.00
2018-12-07T04:40:51.388Z,4.00
2018-12-07T04:43:20.288Z,4.83
2018-12-07T04:45:48.671Z,5.67
2018-12-07T04:48:17.025Z,5.03
2018-12-07T04:50:45.508Z,4.97
2018-12-07T04:53:13.886Z,4.90
2018-12-07T04:55:42.334Z,5.50
2018-12-07T04:58:10.755Z,4.70
2018-12-07T05:00:39.229Z,5.10
2018-12-07T05:03:07.600Z,4.50
2018-12-07T05:05:35.942Z,4.60
2018-12-07T05:08:05.081Z,4.50
2018-12-07T05:10:33.412Z,5.13
2018-12-07T05:13:01.909Z,5.93
2018-12-07T05:15:30.307Z,6.00
2018-12-07T05:17:58.653Z,6.30
2018-12-07T05:20:27.031Z,6.37
2018-12-07T05:22:55.485Z,5.47
2018-12-07T05:25:24.977Z,5.07
2018-12-07T05:27:53.333Z,5.70
2018-12-07T05:30:22.777Z,5.87
2018-12-07T05:32:51.241Z,6.43
2018-12-07T05:35:19.835Z,5.77
2018-12-07T05:37:48.247Z,4.93
2018-12-07T05:40:16.729Z,4.90
2018-12-07T05:42:46.893Z,3.97
2018-12-07T05:45:15.747Z,4.80
2018-12-07T05:47:44.161Z,4.40
2018-12-07T05:50:12.580Z,3.90
2018-12-07T05:52:40.926Z,4.27
2018-12-07T05:55:10.085Z,3.90
2018-12-07T05:57:38.484Z,4.40
2018-12-07T06:00:08.076Z,3.30
2018-12-07T06:02:36.460Z,3.97
2018-12-07T06:05:06.508Z,3.50
2018-12-07T06:07:34.895Z,3.63
2018-12-07T06:10:03.291Z,3.40
2018-12-07T06:12:31.676Z,2.93
2018-12-07T06:15:00.095Z,3.47
2018-12-07T06:17:28.470Z,3.70
2018-12-07T06:19:57.485Z,3.57
2018-12-07T06:22:25.926Z,3.70
2018-12-07T06:24:54.435Z,3.17
2018-12-07T06:27:22.800Z,3.20
2018-12-07T06:29:51.525Z,2.60
2018-12-07T06:32:19.893Z,3.23
2018-12-07T06:34:48.285Z,3.17
2018-12-07T06:37:16.669Z,2.50
2018-12-07T06:39:45.108Z,3.30
2018-12-07T06:42:13.524Z,2.50
2018-12-07T06:44:41.904Z,3.03
2018-12-07T06:47:10.302Z,3.13
2018-12-07T06:49:38.797Z,2.80
2018-12-07T06:52:07.149Z,2.67
2018-12-07T06:54:35.533Z,3.10
2018-12-07T06:57:03.934Z,2.70
2018-12-07T06:59:32.666Z,2.83
2018-12-07T07:02:01.131Z,2.50
2018-12-07T07:04:29.568Z,2.67
2018-12-07T07:06:58.861Z,2.77
2018-12-07T07:09:27.496Z,2.97
2018-12-07T07:11:55.892Z,6.03
2018-12-07T07:14:24.312Z,4.07
2018-12-07T07:16:52.652Z,2.90
2018-12-07T07:19:21.096Z,3.77
2018-12-07T07:21:49.848Z,2.83
2018-12-07T07:24:18.786Z,2.37
2018-12-07T07:26:47.144Z,3.33
2018-12-07T07:29:15.725Z,2.20
2018-12-07T07:31:44.263Z,2.63
2018-12-07T07:34:12.641Z,3.00
2018-12-07T07:36:41.064Z,2.23
2018-12-07T07:39:09.457Z,2.40
2018-12-07T07:41:37.827Z,3.17
2018-12-07T07:44:06.203Z,2.90
2018-12-07T07:46:34.566Z,2.80
2018-12-07T07:49:02.960Z,2.87
2018-12-07T07:51:31.588Z,3.00
2018-12-07T07:53:59.973Z,2.50
2018-12-07T07:56:28.685Z,4.40
2018-12-07T07:58:57.015Z,2.80
2018-12-07T08:01:26.034Z,4.47
2018-12-07T08:03:54.434Z,2.93
2018-12-07T08:06:22.865Z,2.30
2018-12-07T08:08:51.220Z,2.10
2018-12-07T08:11:19.596Z,2.00
2018-12-07T08:13:48.039Z,2.30
2018-12-07T08:16:16.378Z,2.30
2018-12-07T08:18:44.974Z,2.50
2018-12-07T08:21:13.337Z,1.70
2018-12-07T08:23:42.651Z,1.97
2018-12-07T08:26:11.050Z,2.00
2018-12-07T08:28:40.396Z,2.20
2018-12-07T08:31:08.801Z,3.43
2018-12-07T08:33:37.315Z,2.13
2018-12-07T08:36:05.719Z,2.83
2018-12-07T08:38:34.105Z,1.97
2018-12-07T08:41:02.490Z,1.70
2018-12-07T08:43:30.876Z,1.60
2018-12-07T08:45:59.280Z,1.70
2018-12-07T08:48:27.768Z,1.70
2018-12-07T08:50:56.520Z,1.67
2018-12-07T08:53:24.890Z,2.20
2018-12-07T08:55:53.274Z,1.60
2018-12-07T08:58:21.620Z,1.73
2018-12-07T09:00:50.013Z,2.30
2018-12-07T09:03:18.412Z,1.57
2018-12-07T09:05:46.857Z,1.40
2018-12-07T09:08:15.661Z,1.97
2018-12-07T09:10:44.103Z,2.03
2018-12-07T09:13:13.714Z,1.50
2018-12-07T09:15:42.117Z,1.93
2018-12-07T09:18:10.995Z,2.30
2018-12-07T09:20:40.305Z,5.43
2018-12-07T09:23:08.659Z,3.80
2018-12-07T09:25:37.026Z,2.33
2018-12-07T09:28:05.372Z,2.97
2018-12-07T09:30:33.709Z,4.43
2018-12-07T09:33:02.067Z,2.60
2018-12-07T09:35:30.899Z,3.10
2018-12-07T09:38:00.338Z,3.20
2018-12-07T09:40:29.024Z,2.67
2018-12-07T09:42:57.632Z,2.27
2018-12-07T09:45:25.988Z,2.57
2018-12-07T09:47:54.385Z,2.70
2018-12-07T09:50:22.776Z,2.80
2018-12-07T09:52:51.151Z,3.27
2018-12-07T09:55:19.525Z,3.07
2018-12-07T09:57:47.895Z,3.87
2018-12-07T10:00:16.277Z,3.90
2018-12-07T10:02:44.644Z,2.70
2018-12-07T10:05:13.009Z,2.10
2018-12-07T10:07:41.376Z,4.37
2018-12-07T10:10:09.743Z,2.73
2018-12-07T10:12:38.096Z,1.73
2018-12-07T10:15:07.356Z,1.80
2018-12-07T10:17:35.738Z,2.03
2018-12-07T10:20:04.504Z,1.70
2018-12-07T10:22:32.877Z,1.93
2018-12-07T10:25:02.122Z,1.80
2018-12-07T10:27:30.459Z,1.97
2018-12-07T10:29:58.800Z,2.40
2018-12-07T10:32:27.156Z,1.80
2018-12-07T10:34:55.575Z,2.87
2018-12-07T10:37:24.237Z,2.33
2018-12-07T10:39:52.627Z,1.80
2018-12-07T10:42:21.011Z,1.43
2018-12-07T10:44:49.330Z,1.90
2018-12-07T10:47:17.695Z,1.30
2018-12-07T10:49:46.047Z,1.50
2018-12-07T10:52:14.433Z,1.80
2018-12-07T10:54:42.824Z,1.13
2018-12-07T10:57:11.190Z,1.20
2018-12-07T10:59:39.569Z,1.10
2018-12-07T11:02:13.139Z,1.20
2018-12-07T11:04:46.908Z,1.20
2018-12-07T11:08:24.345Z,1.10
2018-12-07T11:10:56.159Z,0.90
2018-12-07T11:13:29.822Z,1.10
2018-12-07T11:16:03.623Z,1.40
2018-12-07T11:18:37.408Z,1.00
2018-12-07T11:21:11.304Z,1.10
2018-12-07T11:23:44.935Z,1.10
2018-12-07T11:26:18.616Z,1.00
2018-12-07T11:28:52.229Z,1.00
2018-12-07T11:31:26.007Z,1.10
2018-12-07T11:33:59.885Z,1.33
2018-12-07T11:36:28.220Z,0.97
2018-12-07T11:38:56.580Z,1.20
2018-12-07T11:41:24.951Z,1.17
2018-12-07T11:43:53.257Z,1.20
2018-12-07T11:46:21.613Z,1.00
2018-12-07T11:48:50.039Z,1.43
2018-12-07T11:51:18.376Z,1.30
2018-12-07T11:53:47.971Z,0.90
2018-12-07T11:56:16.350Z,1.10
2018-12-07T11:58:44.690Z,0.93
2018-12-07T12:01:13.229Z,1.00
2018-12-07T12:03:41.567Z,1.00
2018-12-07T12:06:09.962Z,1.20
2018-12-07T12:08:38.377Z,0.80
2018-12-07T12:11:06.694Z,1.20
2018-12-07T12:13:35.064Z,1.23
2018-12-07T12:16:03.500Z,2.47
2018-12-07T12:18:31.886Z,1.30
2018-12-07T12:21:01.138Z,1.43
2018-12-07T12:23:29.551Z,1.17
2018-12-07T12:25:58.147Z,1.23
2018-12-07T12:28:27.385Z,0.90
2018-12-07T12:30:55.878Z,1.60
2018-12-07T12:33:24.290Z,1.57
2018-12-07T13:03:27.619Z,1.00
2018-12-07T13:05:56.227Z,0.93
2018-12-07T13:08:25.577Z,1.70
2018-12-07T13:13:32.959Z,0.90
2018-12-07T13:16:02.306Z,0.97
2018-12-07T13:18:30.986Z,0.97
2018-12-07T13:20:59.629Z,1.43
2018-12-07T13:23:33.788Z,1.00
2018-12-07T13:26:02.357Z,1.13
2018-12-07T13:28:32.172Z,1.03
2018-12-07T13:31:01.481Z,1.00
2018-12-07T13:33:30.744Z,1.63
2018-12-07T13:35:59.443Z,1.10
2018-12-07T13:38:28.771Z,1.00
2018-12-07T13:40:58.699Z,1.00
2018-12-07T13:43:27.417Z,1.13
2018-12-07T13:45:56.520Z,1.10
2018-12-07T13:48:32.085Z,1.13
2018-12-07T13:51:01.450Z,1.50
2018-12-07T13:53:30.327Z,1.40
2018-12-07T13:56:00.183Z,1.20
2018-12-07T13:58:29.484Z,1.40
2018-12-07T14:01:00.832Z,1.50
2018-12-07T14:03:33.742Z,1.40
2018-12-07T14:06:02.293Z,1.63
2018-12-07T14:08:30.844Z,1.57
2018-12-07T14:10:59.361Z,1.60
2018-12-07T14:13:28.703Z,1.80
2018-12-07T14:15:57.622Z,1.50
2018-12-07T14:18:26.702Z,2.07
2018-12-07T14:20:55.679Z,1.67
2018-12-07T14:23:25.562Z,1.47
2018-12-07T14:25:54.239Z,1.50
2018-12-07T14:28:23.987Z,1.57
2018-12-07T14:30:52.883Z,1.57
2018-12-07T14:33:21.625Z,1.73
2018-12-07T14:35:50.649Z,1.50
2018-12-07T14:38:20.016Z,1.57
2018-12-07T14:40:49.256Z,1.40
2018-12-07T14:43:17.982Z,1.43
2018-12-07T14:45:47.759Z,2.83
2018-12-07T14:48:16.679Z,4.40
2018-12-07T14:50:45.887Z,2.23
2018-12-07T14:53:17.386Z,1.37
2018-12-07T14:55:47.298Z,1.40
2018-12-07T14:58:23.329Z,2.10
2018-12-07T15:01:09.089Z,1.60
2018-12-07T15:03:37.793Z,1.20
2018-12-07T15:06:07.619Z,1.30
2018-12-07T15:08:37.901Z,1.20
2018-12-07T15:11:07.549Z,1.10
2018-12-07T15:13:36.223Z,1.37
2018-12-07T15:16:05.016Z,1.40
2018-12-07T15:18:34.639Z,1.30
2018-12-07T15:21:04.855Z,1.10
2018-12-07T15:23:36.575Z,1.30
2018-12-07T15:26:05.443Z,1.30
2018-12-07T15:28:35.825Z,1.23
2018-12-07T15:31:05.981Z,1.33
2018-12-07T15:33:35.620Z,1.30
2018-12-07T15:36:05.489Z,1.50
2018-12-07T15:38:35.404Z,1.50
2018-12-07T15:41:06.666Z,1.40
2018-12-07T15:43:40.938Z,1.60
2018-12-07T15:46:15.321Z,1.80
2018-12-07T15:48:45.157Z,2.00
2018-12-07T15:51:14.294Z,1.70
2018-12-07T15:53:43.741Z,1.70
2018-12-07T15:56:12.449Z,1.70
2018-12-07T15:58:42.066Z,2.27
2018-12-07T16:01:11.910Z,1.83
2018-12-07T16:03:40.692Z,2.87
2018-12-07T16:06:09.800Z,2.40
2018-12-07T16:08:38.584Z,1.93
2018-12-07T16:11:07.735Z,1.87
2018-12-07T16:13:36.756Z,2.20
2018-12-07T16:16:06.486Z,2.03
2018-12-07T16:18:35.148Z,3.20
2018-12-07T16:21:03.857Z,4.30
2018-12-07T16:23:33.945Z,11.63
2018-12-07T16:26:03.109Z,14.30
2018-12-07T16:28:32.486Z,3.90
2018-12-07T16:31:01.631Z,8.60
2018-12-07T16:33:30.713Z,7.40
2018-12-07T16:35:59.417Z,6.43
2018-12-07T16:38:28.346Z,3.60
2018-12-07T16:40:59.413Z,5.27
2018-12-07T16:43:28.424Z,5.00
2018-12-07T16:45:57.372Z,3.33
2018-12-07T16:48:28.749Z,1.50
2018-12-07T16:50:57.624Z,2.03
2018-12-07T16:53:28.509Z,3.10
2018-12-07T16:55:57.502Z,5.53
2018-12-07T16:58:27.302Z,2.47
2018-12-07T17:00:59.958Z,4.60
2018-12-07T17:03:29.195Z,2.80
2018-12-07T17:06:00.533Z,2.47
2018-12-07T17:08:29.823Z,3.70
2018-12-07T17:10:59.309Z,3.37
2018-12-07T17:13:30.697Z,3.10
2018-12-07T17:15:59.509Z,3.40
2018-12-07T17:18:31.851Z,3.43
2018-12-07T17:21:03.399Z,2.13
2018-12-07T17:23:33.885Z,2.97
2018-12-07T17:26:03.663Z,4.90
2018-12-07T17:28:32.390Z,2.27
2018-12-07T17:31:00.998Z,1.83
2018-12-07T17:33:30.536Z,1.73
2018-12-07T17:36:03.365Z,1.83
2018-12-07T17:38:33.573Z,2.40
2018-12-07T17:41:03.017Z,1.87
2018-12-07T17:43:33.008Z,1.40
2018-12-07T17:46:02.058Z,1.50
2018-12-07T17:48:30.579Z,5.30
2018-12-07T17:50:59.267Z,2.53
2018-12-07T17:53:27.726Z,5.03
2018-12-07T17:55:57.383Z,2.17
2018-12-07T17:58:26.112Z,2.47
2018-12-07T18:00:55.519Z,2.20
2018-12-07T18:03:24.264Z,1.30
2018-12-07T18:05:53.562Z,1.93
2018-12-07T18:08:22.055Z,1.60
2018-12-07T18:10:50.642Z,4.63
2018-12-07T18:13:19.249Z,9.10
2018-12-07T18:15:47.975Z,3.37
2018-12-07T18:18:16.982Z,2.07
2018-12-07T18:20:46.024Z,2.70
2018-12-07T18:23:14.988Z,7.70
2018-12-07T18:25:43.732Z,9.00
2018-12-07T18:28:12.549Z,5.10
2018-12-07T18:30:41.598Z,3.90
2018-12-07T18:33:10.328Z,6.43
2018-12-07T18:35:40.103Z,2.80
2018-12-07T18:38:09.083Z,1.37
2018-12-07T18:40:38.383Z,1.43
2018-12-07T18:43:08.588Z,1.23
2018-12-07T18:45:37.722Z,1.37
2018-12-07T18:48:12.538Z,1.10
2018-12-07T18:50:45.946Z,1.17
2018-12-07T18:53:14.882Z,0.90
2018-12-07T18:55:43.875Z,3.03
2018-12-07T18:58:12.697Z,1.37
2018-12-07T19:00:41.463Z,1.00
2018-12-07T19:03:10.088Z,1.20
2018-12-07T19:05:39.080Z,0.90
2018-12-07T19:08:07.746Z,1.20
2018-12-07T19:10:40.326Z,1.30
2018-12-07T19:13:10.026Z,1.67
2018-12-07T19:15:38.967Z,1.60
2018-12-07T19:18:07.442Z,1.60
2018-12-07T19:20:36.194Z,0.87
2018-12-07T19:23:07.862Z,1.50
2018-12-07T19:25:36.555Z,1.10
2018-12-07T19:28:06.707Z,1.53
2018-12-07T19:30:36.702Z,1.30
2018-12-07T19:33:05.732Z,2.07
2018-12-07T19:35:35.495Z,2.10
2018-12-07T19:38:05.475Z,1.60
2018-12-07T19:40:34.126Z,1.73
2018-12-07T19:43:03.546Z,1.40
2018-12-07T19:45:32.879Z,1.30
2018-12-07T19:48:01.984Z,3.17
2018-12-07T19:50:30.698Z,1.70
2018-12-07T19:52:59.878Z,2.33
2018-12-07T19:55:28.573Z,4.30
2018-12-07T19:57:58.510Z,1.53
2018-12-07T20:00:27.065Z,1.50
2018-12-07T20:02:56.010Z,2.00
2018-12-07T20:05:24.738Z,1.80
2018-12-07T20:07:55.170Z,1.80
2018-12-07T20:10:25.336Z,1.73
2018-12-07T20:12:55.578Z,2.57
2018-12-07T20:15:24.405Z,1.30
2018-12-07T20:17:53.883Z,1.40
2018-12-07T20:20:23.274Z,3.97
2018-12-07T20:22:52.923Z,1.83
2018-12-07T20:25:22.483Z,2.47
2018-12-07T20:27:53.777Z,2.27
2018-12-07T20:30:24.145Z,1.67
2018-12-07T20:32:52.830Z,2.00
2018-12-07T20:35:22.265Z,1.80
2018-12-07T20:37:51.816Z,1.67
2018-12-07T20:40:20.741Z,1.93
2018-12-07T20:42:52.146Z,1.60
2018-12-07T20:45:23.414Z,1.60
2018-12-07T20:47:51.857Z,3.00
2018-12-07T20:50:21.149Z,2.00
2018-12-07T20:52:50.362Z,3.73
2018-12-07T20:55:19.133Z,1.83
2018-12-07T20:57:48.450Z,1.80
2018-12-07T21:00:19.566Z,2.17
2018-12-07T21:02:48.045Z,2.10
2018-12-07T21:05:33.790Z,2.10
2018-12-07T21:11:14.331Z,2.10
2018-12-07T21:14:04.337Z,2.23
2018-12-07T21:17:16.775Z,2.90
2018-12-07T21:20:21.554Z,1.57
2018-12-07T21:22:50.477Z,2.00
2018-12-07T21:25:19.356Z,1.17
2018-12-07T21:27:47.903Z,2.53
2018-12-07T21:30:56.998Z,2.13
2018-12-07T21:33:37.409Z,2.00
2018-12-07T21:36:40.003Z,1.80
2018-12-07T21:39:16.105Z,1.60
2018-12-07T21:41:45.830Z,2.00
2018-12-07T21:44:16.793Z,2.13
2018-12-07T21:46:46.162Z,1.90
2018-12-07T21:49:15.375Z,1.30
2018-12-07T21:51:53.043Z,1.90
2018-12-07T21:54:21.913Z,1.60
2018-12-07T21:56:50.686Z,1.67
2018-12-07T21:59:19.811Z,2.13
2018-12-07T22:01:49.084Z,2.77
2018-12-07T22:04:18.476Z,1.70
2018-12-07T22:06:47.309Z,2.00
2018-12-07T22:09:16.728Z,1.90
2018-12-07T22:11:47.045Z,1.77
2018-12-07T22:14:16.465Z,1.80
2018-12-07T22:16:46.328Z,2.50
2018-12-07T22:19:15.032Z,2.07
2018-12-07T22:21:44.743Z,1.97
2018-12-07T22:24:13.179Z,1.80
2018-12-07T22:26:42.616Z,2.57
2018-12-07T22:29:11.421Z,1.80
2018-12-07T22:31:40.667Z,1.50
2018-12-07T22:34:09.144Z,2.40
2018-12-07T22:36:37.797Z,2.23
2018-12-07T22:39:11.659Z,2.93
2018-12-07T22:41:42.426Z,2.70
2018-12-07T22:44:11.724Z,2.13
2018-12-07T22:46:41.476Z,1.63
2018-12-07T22:49:10.175Z,2.07
2018-12-07T22:51:38.845Z,2.00
2018-12-07T22:54:07.899Z,2.50
2018-12-07T22:56:36.676Z,2.70
2018-12-07T22:59:06.217Z,1.87
2018-12-07T23:01:34.738Z,2.30
2018-12-07T23:04:03.980Z,1.53
2018-12-07T23:06:32.508Z,2.67
2018-12-07T23:09:01.136Z,2.70
2018-12-07T23:11:31.762Z,2.37
2018-12-07T23:14:00.270Z,1.73
2018-12-07T23:16:29.991Z,1.60
2018-12-07T23:18:59.184Z,1.30
2018-12-07T23:21:28.758Z,1.67
2018-12-07T23:23:57.458Z,2.00
2018-12-07T23:26:26.173Z,1.73
2018-12-07T23:28:55.446Z,1.40
2018-12-07T23:31:23.923Z,3.10
2018-12-07T23:33:52.467Z,1.67
2018-12-07T23:36:20.941Z,1.87
2018-12-07T23:38:49.650Z,2.57
2018-12-07T23:41:18.083Z,1.63
2018-12-07T23:43:46.595Z,1.70
2018-12-07T23:46:15.834Z,2.27
2018-12-07T23:48:44.303Z,1.80
2018-12-07T23:51:12.766Z,2.03
2018-12-07T23:53:41.396Z,1.97
2018-12-07T23:56:09.925Z,1.73
2018-12-07T23:58:38.411Z,2.27
